Time;durP1;ratioP1;P1;durP2;ratioP2;P2;SDS_P1;SDS_P2;PMS_P1;PMS_P2;Temp;Humidity;BMP_temperature;BMP_pressure;BME280_temperature;BME280_humidity;BME280_pressure;Samples;Min_cycle;Max_cycle;Signal;HPM_P1;HPM_P2
2021/01/15 00:01:04;;;;;;;8.25;3.55;;;;;;;;;;5097928;28;20194;-45
2021/01/15 00:03:54;;;;;;;7.85;3.70;;;;;;;;;;5102346;28;20228;-50
2021/01/15 00:06:23;;;;;;;11.35;6.85;;;;;;;;;;5107222;28;20210;-52
2021/01/15 00:08:50;;;;;;;15.43;9.25;;;;;;;;;;5096862;28;20214;-49
2021/01/15 00:11:20;;;;;;;7.07;3.22;;;;;;;;;;5100749;28;20175;-53
2021/01/15 00:14:06;;;;;;;4.32;2.90;;;;;;;;;;5112789;28;20379;-45
2021/01/15 00:17:08;;;;;;;3.67;2.83;;;;;;;;;;5062015;28;20188;-48
2021/01/15 00:19:41;;;;;;;6.05;3.17;;;;;;;;;;5076706;28;20196;-50
2021/01/15 00:22:08;;;;;;;7.20;4.43;;;;;;;;;;5077231;28;20270;-53
2021/01/15 00:24:35;;;;;;;5.28;3.25;;;;;;;;;;5076006;28;20197;-49
2021/01/15 00:27:32;;;;;;;4.95;3.17;;;;;;;;;;5076682;28;20210;-51
2021/01/15 00:30:20;;;;;;;9.38;3.20;;;;;;;;;;5067095;28;20238;-52
2021/01/15 00:32:57;;;;;;;4.30;3.05;;;;;;;;;;5056290;28;20234;-52
2021/01/15 00:38:14;;;;;;;6.60;3.33;;;;;;;;;;5231115;22;20220;-52
2021/01/15 00:40:44;;;;;;;5.85;3.10;;;;;;;;;;5073115;28;20251;-48
2021/01/15 00:43:21;;;;;;;4.28;3.50;;;;;;;;;;5074534;28;20203;-54
2021/01/15 00:45:56;;;;;;;6.07;3.28;;;;;;;;;;5075985;28;20206;-58
2021/01/15 00:48:58;;;;;;;6.03;3.85;;;;;;;;;;5076338;28;20254;-53
2021/01/15 00:54:08;;;;;;;10.38;4.22;;;;;;;;;;5091640;28;20256;-52
2021/01/15 00:56:45;;;;;;;6.05;2.97;;;;;;;;;;5096832;28;20270;-49
2021/01/15 00:59:13;;;;;;;4.65;2.65;;;;;;;;;;5076894;28;20203;-52
2021/01/15 01:08:09;;;;;;;7.30;4.68;;;;;;;;;;5073641;28;20199;-56
2021/01/15 01:11:03;;;;;;;5.00;2.65;;;;;;;;;;5075527;28;20196;-49
2021/01/15 01:13:59;;;;;;;4.47;2.60;;;;;;;;;;5071917;28;20312;-50
2021/01/15 01:16:33;;;;;;;6.47;2.63;;;;;;;;;;5076463;28;20289;-49
2021/01/15 01:19:06;;;;;;;6.38;2.80;;;;;;;;;;5063516;28;20183;-57
2021/01/15 01:21:35;;;;;;;4.55;2.78;;;;;;;;;;5065964;28;20218;-52
2021/01/15 01:24:15;;;;;;;4.25;2.95;;;;;;;;;;5061579;28;20216;-49
2021/01/15 01:26:41;;;;;;;5.80;2.97;;;;;;;;;;5063658;28;20223;-46
2021/01/15 01:29:08;;;;;;;5.28;2.38;;;;;;;;;;5071034;28;20207;-49
2021/01/15 01:31:41;;;;;;;4.35;2.58;;;;;;;;;;5059330;28;20215;-49
2021/01/15 01:34:14;;;;;;;5.70;2.75;;;;;;;;;;5059540;28;20242;-44
2021/01/15 01:36:45;;;;;;;5.25;3.15;;;;;;;;;;5071050;28;20203;-47
2021/01/15 01:39:25;;;;;;;4.10;2.95;;;;;;;;;;5079357;28;20207;-50
2021/01/15 01:42:03;;;;;;;4.50;3.10;;;;;;;;;;5068225;28;20254;-47
2021/01/15 01:44:36;;;;;;;5.18;3.03;;;;;;;;;;5059687;28;20214;-50
2021/01/15 01:47:05;;;;;;;6.13;3.55;;;;;;;;;;5059360;28;20199;-52
2021/01/15 01:49:45;;;;;;;8.35;3.20;;;;;;;;;;5056963;28;20226;-50
2021/01/15 01:52:13;;;;;;;5.07;3.28;;;;;;;;;;5041977;28;20219;-46
2021/01/15 01:54:42;;;;;;;6.70;3.40;;;;;;;;;;5059712;28;20260;-46
2021/01/15 01:57:14;;;;;;;6.90;3.65;;;;;;;;;;5047213;28;20201;-44
2021/01/15 01:59:41;;;;;;;5.15;3.33;;;;;;;;;;5038948;28;20220;-46
2021/01/15 02:02:22;;;;;;;6.13;3.13;;;;;;;;;;5055778;28;20199;-52
2021/01/15 02:04:54;;;;;;;5.32;2.90;;;;;;;;;;5058745;28;20231;-44
2021/01/15 02:07:27;;;;;;;7.65;3.40;;;;;;;;;;5058946;28;20235;-51
2021/01/15 02:10:13;;;;;;;5.18;3.10;;;;;;;;;;5059254;28;20192;-47
2021/01/15 02:12:46;;;;;;;5.53;3.85;;;;;;;;;;5073915;28;20191;-50
2021/01/15 02:15:23;;;;;;;5.53;3.78;;;;;;;;;;5067031;28;20209;-46
2021/01/15 02:17:52;;;;;;;5.35;2.95;;;;;;;;;;5047126;28;20201;-53
2021/01/15 02:20:44;;;;;;;5.10;3.85;;;;;;;;;;5050450;28;20196;-55
2021/01/15 02:26:42;;;;;;;9.80;4.15;;;;;;;;;;5053666;28;20207;-56
2021/01/15 02:29:49;;;;;;;6.63;4.15;;;;;;;;;;5036361;28;20202;-55
2021/01/15 02:32:37;;;;;;;6.15;3.85;;;;;;;;;;5000013;28;20228;-49
2021/01/15 02:35:20;;;;;;;6.22;3.63;;;;;;;;;;5037821;28;20194;-56
2021/01/15 02:38:04;;;;;;;6.63;3.85;;;;;;;;;;5049484;28;20224;-53
2021/01/15 02:43:17;;;;;;;11.55;4.43;;;;;;;;;;5051967;28;20214;-51
2021/01/15 02:45:45;;;;;;;7.53;3.55;;;;;;;;;;5057521;28;20205;-48
2021/01/15 02:48:21;;;;;;;8.25;3.80;;;;;;;;;;5057571;28;20177;-54
2021/01/15 02:50:59;;;;;;;6.25;4.80;;;;;;;;;;5040426;28;20200;-52
2021/01/15 02:53:26;;;;;;;8.77;4.78;;;;;;;;;;5056961;28;20368;-55
2021/01/15 02:56:08;;;;;;;4.53;3.40;;;;;;;;;;5057863;28;20211;-50
2021/01/15 02:58:35;;;;;;;10.73;4.82;;;;;;;;;;5053521;28;20206;-49
2021/01/15 03:01:02;;;;;;;9.02;4.45;;;;;;;;;;5050593;28;20254;-46
2021/01/15 03:03:49;;;;;;;10.35;4.60;;;;;;;;;;5057004;28;20236;-57
2021/01/15 03:06:33;;;;;;;8.35;4.75;;;;;;;;;;5056740;28;20196;-49
2021/01/15 03:09:03;;;;;;;8.20;4.20;;;;;;;;;;5074474;28;20226;-54
2021/01/15 03:11:33;;;;;;;9.75;4.05;;;;;;;;;;5077767;28;20208;-53
2021/01/15 03:14:07;;;;;;;12.52;5.63;;;;;;;;;;5077357;28;20221;-55
2021/01/15 03:16:49;;;;;;;7.18;4.95;;;;;;;;;;5077410;28;20212;-48
2021/01/15 03:19:16;;;;;;;7.85;4.00;;;;;;;;;;5076353;28;20199;-56
2021/01/15 03:21:58;;;;;;;7.95;3.60;;;;;;;;;;5077256;28;20195;-53
2021/01/15 03:24:28;;;;;;;6.47;4.15;;;;;;;;;;5077077;28;20222;-53
2021/01/15 03:26:55;;;;;;;6.82;3.85;;;;;;;;;;5077648;28;20238;-46
2021/01/15 03:29:22;;;;;;;6.65;4.20;;;;;;;;;;5049869;28;20236;-51
2021/01/15 03:32:09;;;;;;;5.90;4.25;;;;;;;;;;5048428;28;20204;-49
2021/01/15 03:34:40;;;;;;;6.32;3.80;;;;;;;;;;5056879;28;20215;-45
2021/01/15 03:37:07;;;;;;;6.05;3.53;;;;;;;;;;5052746;28;20206;-48
2021/01/15 03:39:52;;;;;;;6.13;4.13;;;;;;;;;;5036979;28;20182;-49
2021/01/15 03:42:19;;;;;;;5.88;3.60;;;;;;;;;;5036542;28;20189;-52
2021/01/15 03:44:46;;;;;;;7.90;3.72;;;;;;;;;;5042756;28;20189;-55
2021/01/15 03:47:18;;;;;;;6.22;4.30;;;;;;;;;;5038222;28;20189;-51
2021/01/15 03:49:47;;;;;;;5.00;3.40;;;;;;;;;;5023204;28;20352;-53
2021/01/15 03:52:22;;;;;;;7.07;5.15;;;;;;;;;;5036892;28;20199;-47
2021/01/15 03:54:53;;;;;;;5.63;3.90;;;;;;;;;;5029140;28;20213;-55
2021/01/15 03:57:25;;;;;;;6.35;5.03;;;;;;;;;;5036753;28;20248;-55
2021/01/15 03:59:53;;;;;;;7.03;3.42;;;;;;;;;;5036372;28;20209;-49
2021/01/15 04:02:26;;;;;;;5.70;3.53;;;;;;;;;;5073938;28;20214;-51
2021/01/15 04:05:02;;;;;;;6.20;3.75;;;;;;;;;;5096279;28;20191;-60
2021/01/15 04:07:53;;;;;;;4.43;3.22;;;;;;;;;;5096134;28;20205;-47
2021/01/15 04:10:21;;;;;;;5.32;3.53;;;;;;;;;;5086755;28;20219;-57
2021/01/15 04:12:50;;;;;;;6.95;3.50;;;;;;;;;;5056673;28;20188;-55
2021/01/15 04:15:41;;;;;;;6.45;4.18;;;;;;;;;;5056085;28;20259;-55
2021/01/15 04:18:17;;;;;;;7.13;4.13;;;;;;;;;;5055726;28;20192;-51
2021/01/15 04:20:46;;;;;;;6.47;3.88;;;;;;;;;;5055460;28;20196;-54
2021/01/15 04:23:41;;;;;;;5.47;3.67;;;;;;;;;;5054754;28;20200;-55
2021/01/15 04:26:18;;;;;;;6.75;3.92;;;;;;;;;;5069865;28;20198;-56
2021/01/15 04:29:04;;;;;;;9.40;4.97;;;;;;;;;;5076033;28;20295;-54
2021/01/15 04:31:55;;;;;;;9.57;4.65;;;;;;;;;;5075378;28;20196;-47
2021/01/15 04:34:24;;;;;;;11.43;4.68;;;;;;;;;;5076419;28;20223;-55
2021/01/15 04:37:08;;;;;;;8.13;4.78;;;;;;;;;;5075960;28;20200;-48
2021/01/15 04:39:34;;;;;;;12.50;5.97;;;;;;;;;;5046195;28;20188;-55
2021/01/15 04:42:20;;;;;;;11.18;6.13;;;;;;;;;;5056291;28;20208;-54
2021/01/15 04:45:17;;;;;;;10.60;5.85;;;;;;;;;;5036813;28;20213;-47
2021/01/15 04:51:11;;;;;;;11.30;6.05;;;;;;;;;;5046061;28;20196;-51
2021/01/15 04:56:50;;;;;;;11.30;6.80;;;;;;;;;;5050046;28;20200;-50
2021/01/15 05:02:37;;;;;;;11.82;7.70;;;;;;;;;;5055762;28;20190;-52
2021/01/15 05:05:37;;;;;;;9.35;6.60;;;;;;;;;;5055889;28;20250;-52
2021/01/15 05:11:20;;;;;;;9.88;6.07;;;;;;;;;;5053991;28;20242;-50
2021/01/15 05:13:57;;;;;;;16.42;7.00;;;;;;;;;;5055838;28;20224;-57
2021/01/15 05:16:46;;;;;;;18.05;8.25;;;;;;;;;;5058891;28;20200;-54
2021/01/15 05:19:31;;;;;;;13.07;7.88;;;;;;;;;;5072602;28;20192;-53
2021/01/15 05:22:29;;;;;;;14.20;6.90;;;;;;;;;;5075308;28;20241;-59
2021/01/15 05:25:32;;;;;;;16.33;8.60;;;;;;;;;;5034131;28;20276;-53
2021/01/15 05:28:18;;;;;;;11.35;8.15;;;;;;;;;;5034141;28;20227;-46
2021/01/15 05:34:10;;;;;;;12.10;8.20;;;;;;;;;;5061283;28;20235;-52
2021/01/15 05:36:49;;;;;;;14.32;8.40;;;;;;;;;;5075000;28;20203;-50
2021/01/15 05:39:17;;;;;;;12.75;7.85;;;;;;;;;;5075909;28;20191;-50
2021/01/15 05:42:04;;;;;;;16.52;9.27;;;;;;;;;;5075500;28;20230;-47
2021/01/15 05:44:40;;;;;;;14.75;9.20;;;;;;;;;;5075271;28;20204;-58
2021/01/15 05:47:18;;;;;;;15.05;8.40;;;;;;;;;;5075048;28;20203;-51
2021/01/15 05:53:17;;;;;;;14.70;7.65;;;;;;;;;;5064830;28;20209;-51
2021/01/15 05:59:14;;;;;;;13.93;8.98;;;;;;;;;;4989029;28;20258;-57
2021/01/15 06:01:59;;;;;;;13.75;8.77;;;;;;;;;;5059429;28;20263;-54
2021/01/15 06:04:37;;;;;;;12.88;8.90;;;;;;;;;;5074878;28;20256;-52
2021/01/15 06:07:38;;;;;;;17.65;9.43;;;;;;;;;;5074519;28;20203;-56
2021/01/15 06:10:05;;;;;;;12.80;8.13;;;;;;;;;;5077956;28;20188;-53
2021/01/15 06:15:51;;;;;;;13.27;8.65;;;;;;;;;;5077109;28;20218;-56
2021/01/15 06:18:22;;;;;;;16.95;9.82;;;;;;;;;;5078050;28;20291;-57
2021/01/15 06:20:50;;;;;;;11.85;8.15;;;;;;;;;;5078743;28;20204;-57
2021/01/15 06:23:20;;;;;;;12.93;7.75;;;;;;;;;;5074990;28;21157;-53
2021/01/15 06:26:01;;;;;;;13.68;8.60;;;;;;;;;;5058103;28;20211;-56
2021/01/15 06:29:09;;;;;;;15.75;9.80;;;;;;;;;;5058302;28;20197;-57
2021/01/15 06:31:49;;;;;;;11.52;8.20;;;;;;;;;;5057704;28;20205;-55
2021/01/15 06:37:34;;;;;;;13.63;8.75;;;;;;;;;;5061805;28;20366;-48
2021/01/15 06:40:03;;;;;;;12.93;8.93;;;;;;;;;;5077497;28;20204;-55
2021/01/15 06:42:45;;;;;;;16.77;9.07;;;;;;;;;;5061129;28;20407;-54
2021/01/15 06:45:21;;;;;;;16.83;8.82;;;;;;;;;;5078326;28;20356;-56
2021/01/15 06:47:54;;;;;;;12.38;7.43;;;;;;;;;;5078591;28;20195;-53
2021/01/15 06:50:21;;;;;;;13.02;8.43;;;;;;;;;;5077634;28;20206;-51
2021/01/15 06:52:49;;;;;;;14.30;9.25;;;;;;;;;;5077345;28;20211;-58
2021/01/15 06:55:39;;;;;;;14.77;8.85;;;;;;;;;;5063751;28;20260;-52
2021/01/15 06:58:12;;;;;;;11.88;8.32;;;;;;;;;;5051936;28;20197;-57
2021/01/15 07:01:07;;;;;;;17.70;8.80;;;;;;;;;;5057394;28;20228;-55
2021/01/15 07:03:54;;;;;;;13.75;8.77;;;;;;;;;;5070135;28;20215;-57
2021/01/15 07:06:30;;;;;;;15.05;9.05;;;;;;;;;;5077619;28;20204;-57
2021/01/15 07:12:27;;;;;;;11.65;8.57;;;;;;;;;;5076761;28;20196;-54
2021/01/15 07:18:11;;;;;;;21.20;12.48;;;;;;;;;;5077192;28;20275;-53
2021/01/15 07:20:54;;;;;;;14.00;10.38;;;;;;;;;;5076668;28;20220;-49
2021/01/15 07:23:48;;;;;;;16.95;10.98;;;;;;;;;;5077700;28;20252;-50
2021/01/15 07:26:17;;;;;;;18.13;10.60;;;;;;;;;;5078004;28;20191;-52
2021/01/15 07:28:46;;;;;;;18.83;10.00;;;;;;;;;;5077202;28;20203;-57
2021/01/15 07:31:31;;;;;;;16.42;10.52;;;;;;;;;;5076564;28;20227;-50
2021/01/15 07:36:44;;;;;;;19.33;11.77;;;;;;;;;;5056012;28;20200;-49
2021/01/15 07:39:18;;;;;;;17.58;11.15;;;;;;;;;;5055807;28;20208;-56
2021/01/15 07:41:47;;;;;;;19.45;12.68;;;;;;;;;;5056477;28;20201;-54
2021/01/15 07:47:23;;;;;;;22.75;14.07;;;;;;;;;;5055455;28;20266;-51
2021/01/15 07:53:04;;;;;;;18.23;11.52;;;;;;;;;;5056138;28;20363;-53
2021/01/15 07:55:51;;;;;;;16.42;11.38;;;;;;;;;;5056635;28;20208;-58
2021/01/15 07:58:23;;;;;;;19.85;12.57;;;;;;;;;;5056008;28;20184;-53
2021/01/15 08:00:54;;;;;;;20.92;13.43;;;;;;;;;;5091031;28;20223;-50
2021/01/15 08:03:23;;;;;;;24.55;13.82;;;;;;;;;;5096745;28;20207;-55
2021/01/15 08:06:24;;;;;;;18.48;11.93;;;;;;;;;;5095978;28;20206;-57
2021/01/15 08:09:12;;;;;;;21.88;12.98;;;;;;;;;;5075741;28;20231;-52
2021/01/15 08:11:57;;;;;;;20.92;14.38;;;;;;;;;;5076138;28;20210;-49
2021/01/15 08:14:24;;;;;;;20.65;13.55;;;;;;;;;;5076113;28;20283;-48
2021/01/15 08:20:00;;;;;;;19.80;13.70;;;;;;;;;;5062824;28;20181;-50
2021/01/15 08:28:49;;;;;;;27.90;15.55;;;;;;;;;;5076078;28;20222;-53
2021/01/15 08:31:23;;;;;;;24.45;17.02;;;;;;;;;;5075525;28;20196;-52
2021/01/15 08:37:04;;;;;;;22.00;16.42;;;;;;;;;;5084493;28;20244;-57
2021/01/15 08:42:57;;;;;;;28.73;17.92;;;;;;;;;;5054871;28;20240;-47
2021/01/15 08:45:35;;;;;;;26.80;17.83;;;;;;;;;;5082969;28;20218;-54
2021/01/15 08:48:02;;;;;;;22.52;15.48;;;;;;;;;;5095697;28;20223;-53
2021/01/15 08:50:30;;;;;;;26.73;16.75;;;;;;;;;;5096134;28;20215;-56
2021/01/15 08:53:10;;;;;;;22.33;15.05;;;;;;;;;;5095550;28;20179;-54
2021/01/15 08:55:59;;;;;;;23.17;14.07;;;;;;;;;;5094514;28;20258;-52
2021/01/15 08:58:29;;;;;;;21.85;14.82;;;;;;;;;;5096125;28;20238;-53
2021/01/15 09:00:56;;;;;;;23.98;14.90;;;;;;;;;;5095626;28;20207;-54
2021/01/15 09:06:28;;;;;;;22.02;12.75;;;;;;;;;;5095307;28;20179;-49
2021/01/15 09:12:33;;;;;;;21.88;12.50;;;;;;;;;;5074831;28;20179;-57
2021/01/15 09:15:00;;;;;;;18.70;12.32;;;;;;;;;;5077154;28;20234;-51
2021/01/15 09:17:45;;;;;;;16.52;12.15;;;;;;;;;;5110439;28;20203;-57
2021/01/15 09:27:06;;;;;;;19.73;12.32;;;;;;;;;;5074442;28;20204;-52
2021/01/15 09:29:35;;;;;;;21.33;10.20;;;;;;;;;;5073687;28;20193;-55
2021/01/15 09:41:28;;;;;;;22.00;14.25;;;;;;;;;;5012665;28;20225;-58
2021/01/15 09:43:58;;;;;;;30.33;15.15;;;;;;;;;;5052655;28;20221;-50
2021/01/15 09:46:30;;;;;;;23.45;14.70;;;;;;;;;;5042916;28;20249;-47
2021/01/15 09:48:58;;;;;;;23.25;15.85;;;;;;;;;;5058391;28;20206;-52
2021/01/15 09:51:26;;;;;;;24.60;15.48;;;;;;;;;;5072310;28;20246;-52
2021/01/15 09:57:08;;;;;;;24.58;14.93;;;;;;;;;;5078062;28;20223;-58
2021/01/15 09:59:39;;;;;;;22.63;14.02;;;;;;;;;;5079180;28;20188;-49
2021/01/15 10:05:23;;;;;;;17.45;12.18;;;;;;;;;;5075156;28;20198;-53
2021/01/15 10:10:53;;;;;;;23.55;14.13;;;;;;;;;;5098684;28;20219;-51
2021/01/15 10:13:20;;;;;;;28.98;15.55;;;;;;;;;;5098071;28;20253;-55
2021/01/15 10:15:47;;;;;;;23.83;15.00;;;;;;;;;;5078460;28;20192;-47
2021/01/15 10:18:21;;;;;;;24.50;14.30;;;;;;;;;;5078084;28;20195;-55
2021/01/15 10:20:55;;;;;;;28.95;17.02;;;;;;;;;;5077753;28;20243;-47
2021/01/15 10:26:35;;;;;;;23.98;14.07;;;;;;;;;;5078718;28;20166;-50
2021/01/15 10:32:12;;;;;;;27.63;14.75;;;;;;;;;;5078324;28;20203;-55
2021/01/15 10:34:38;;;;;;;22.50;13.15;;;;;;;;;;5078356;28;20238;-53
2021/01/15 10:37:09;;;;;;;26.90;15.45;;;;;;;;;;5077516;28;20207;-50
2021/01/15 10:39:36;;;;;;;25.83;15.07;;;;;;;;;;5077957;28;20200;-57
2021/01/15 10:47:52;;;;;;;27.85;15.65;;;;;;;;;;5055664;28;20215;-55
2021/01/15 10:50:21;;;;;;;26.70;16.85;;;;;;;;;;5067744;28;20207;-53
2021/01/15 10:52:59;;;;;;;22.77;14.23;;;;;;;;;;5076741;28;20216;-53
2021/01/15 10:55:29;;;;;;;25.73;14.40;;;;;;;;;;5069185;28;20259;-51
2021/01/15 10:58:00;;;;;;;23.75;13.73;;;;;;;;;;5058087;28;20177;-54
2021/01/15 11:00:36;;;;;;;23.70;14.00;;;;;;;;;;5054957;28;20251;-53
2021/01/15 11:03:31;;;;;;;22.15;13.57;;;;;;;;;;5076855;28;20250;-46
2021/01/15 11:09:23;;;;;;;28.88;13.82;;;;;;;;;;5074445;28;20237;-55
2021/01/15 11:12:11;;;;;;;27.80;15.18;;;;;;;;;;5076082;28;20272;-58
2021/01/15 11:17:44;;;;;;;24.80;14.48;;;;;;;;;;5071922;28;20375;-56
2021/01/15 11:20:12;;;;;;;28.05;14.63;;;;;;;;;;5074863;28;20236;-47
2021/01/15 11:22:50;;;;;;;25.10;15.13;;;;;;;;;;5075000;28;20213;-55
2021/01/15 11:25:23;;;;;;;24.48;13.55;;;;;;;;;;5074162;28;20303;-52
2021/01/15 11:27:51;;;;;;;28.65;15.65;;;;;;;;;;5075936;28;20298;-52
2021/01/15 11:30:20;;;;;;;26.40;14.80;;;;;;;;;;5076009;28;20203;-48
2021/01/15 11:32:48;;;;;;;25.08;15.23;;;;;;;;;;5074865;28;20204;-51
2021/01/15 11:38:20;;;;;;;28.90;17.05;;;;;;;;;;5074825;28;20219;-48
2021/01/15 11:43:51;;;;;;;24.75;15.48;;;;;;;;;;5076138;28;20195;-54
2021/01/15 11:46:18;;;;;;;28.75;16.75;;;;;;;;;;5076263;28;20208;-56
2021/01/15 11:49:16;;;;;;;27.48;16.25;;;;;;;;;;5076076;28;20204;-47
2021/01/15 11:57:49;;;;;;;30.23;16.17;;;;;;;;;;5073813;28;20307;-55
2021/01/15 12:00:19;;;;;;;32.70;17.55;;;;;;;;;;5075415;28;20236;-51
2021/01/15 12:02:47;;;;;;;32.45;19.38;;;;;;;;;;5075593;28;20191;-54
2021/01/15 12:08:34;;;;;;;35.47;18.67;;;;;;;;;;5074931;28;20343;-52
2021/01/15 12:11:04;;;;;;;31.80;19.35;;;;;;;;;;5074870;28;20236;-59
2021/01/15 12:13:31;;;;;;;31.08;18.38;;;;;;;;;;5074040;28;20205;-50
2021/01/15 12:16:11;;;;;;;34.88;19.70;;;;;;;;;;5059858;28;20286;-52
2021/01/15 12:18:45;;;;;;;32.67;18.63;;;;;;;;;;5038973;28;20194;-53
2021/01/15 12:21:18;;;;;;;31.63;18.02;;;;;;;;;;5054911;28;20201;-52
2021/01/15 12:23:46;;;;;;;30.02;17.60;;;;;;;;;;5055052;28;20282;-50
2021/01/15 12:26:14;;;;;;;30.35;17.35;;;;;;;;;;5069253;28;20219;-56
2021/01/15 12:31:32;;;;;;;25.83;14.77;;;;;;;;;;5074579;28;20197;-52
2021/01/15 12:37:02;;;;;;;25.95;17.45;;;;;;;;;;5075684;28;20801;-55
2021/01/15 12:39:43;;;;;;;35.00;19.05;;;;;;;;;;5074742;28;20247;-58
2021/01/15 12:42:25;;;;;;;35.50;21.38;;;;;;;;;;5075039;28;20213;-52
2021/01/15 12:45:00;;;;;;;34.40;20.30;;;;;;;;;;5073217;28;20193;-53
2021/01/15 12:47:29;;;;;;;27.65;17.35;;;;;;;;;;5071832;28;20204;-55
2021/01/15 12:49:58;;;;;;;24.40;15.38;;;;;;;;;;5071703;28;20292;-46
2021/01/15 12:52:27;;;;;;;28.42;16.52;;;;;;;;;;5082206;28;20196;-50
2021/01/15 12:55:08;;;;;;;24.13;14.85;;;;;;;;;;5073122;28;20231;-57
2021/01/15 12:57:40;;;;;;;30.63;16.20;;;;;;;;;;5072375;28;20235;-56
2021/01/15 13:00:16;;;;;;;26.05;16.35;;;;;;;;;;5073965;28;20193;-54
2021/01/15 13:02:44;;;;;;;29.90;18.38;;;;;;;;;;5074811;28;20209;-56
2021/01/15 13:05:14;;;;;;;26.27;15.43;;;;;;;;;;5075455;28;20196;-54
2021/01/15 13:08:03;;;;;;;27.77;13.60;;;;;;;;;;5074664;28;20285;-54
2021/01/15 13:10:31;;;;;;;24.58;15.00;;;;;;;;;;5065399;28;20232;-56
2021/01/15 13:13:07;;;;;;;21.00;13.50;;;;;;;;;;5075155;28;20189;-53
2021/01/15 13:16:10;;;;;;;21.63;13.65;;;;;;;;;;5074671;28;20239;-53
2021/01/15 13:18:37;;;;;;;25.15;13.63;;;;;;;;;;5076654;28;20224;-54
2021/01/15 13:21:14;;;;;;;19.40;11.75;;;;;;;;;;5079058;28;20222;-55
2021/01/15 13:23:41;;;;;;;17.60;11.27;;;;;;;;;;5071266;28;20205;-48
2021/01/15 13:26:12;;;;;;;25.20;12.40;;;;;;;;;;5077565;28;20205;-52
2021/01/15 13:28:52;;;;;;;11.95;7.93;;;;;;;;;;5077200;28;20192;-54
2021/01/15 13:37:52;;;;;;;10.60;4.80;;;;;;;;;;5070971;28;20226;-49
2021/01/15 13:40:23;;;;;;;9.30;4.90;;;;;;;;;;5064611;28;20196;-53
2021/01/15 13:43:00;;;;;;;9.15;5.05;;;;;;;;;;5042279;28;20211;-57
2021/01/15 13:45:28;;;;;;;7.90;5.07;;;;;;;;;;5087644;28;20223;-55
2021/01/15 13:47:56;;;;;;;6.40;3.90;;;;;;;;;;5097628;28;20202;-56
2021/01/15 13:50:36;;;;;;;7.80;5.40;;;;;;;;;;5098013;28;20203;-55
2021/01/15 13:53:24;;;;;;;7.70;4.50;;;;;;;;;;5097386;28;20187;-55
2021/01/15 13:55:51;;;;;;;9.10;5.15;;;;;;;;;;5097848;28;20233;-56
2021/01/15 13:58:51;;;;;;;9.07;5.05;;;;;;;;;;5105505;28;20205;-56
2021/01/15 14:01:21;;;;;;;14.65;5.40;;;;;;;;;;5115368;28;20218;-51
2021/01/15 14:03:48;;;;;;;9.18;5.70;;;;;;;;;;5096301;28;20219;-53
2021/01/15 14:09:29;;;;;;;13.00;5.85;;;;;;;;;;5075096;28;20223;-51
2021/01/15 14:11:56;;;;;;;9.65;6.80;;;;;;;;;;5076124;28;20240;-54
2021/01/15 14:17:34;;;;;;;11.75;7.80;;;;;;;;;;5075361;28;20201;-53
2021/01/15 14:20:02;;;;;;;9.73;6.30;;;;;;;;;;5078527;28;20206;-54
2021/01/15 14:22:32;;;;;;;14.70;7.05;;;;;;;;;;5076033;28;20202;-52
2021/01/15 14:24:59;;;;;;;10.75;7.00;;;;;;;;;;5079488;28;20215;-57
2021/01/15 14:27:26;;;;;;;15.20;7.72;;;;;;;;;;5082732;28;20192;-50
2021/01/15 14:30:25;;;;;;;14.98;8.27;;;;;;;;;;5075078;28;20232;-55
2021/01/15 14:32:54;;;;;;;15.02;8.50;;;;;;;;;;5057756;28;20180;-52
2021/01/15 14:35:26;;;;;;;17.95;8.13;;;;;;;;;;5074955;28;20238;-56
2021/01/15 14:38:00;;;;;;;18.85;8.05;;;;;;;;;;5065451;28;20368;-55
2021/01/15 14:40:36;;;;;;;18.43;9.83;;;;;;;;;;4695760;28;10370771;-56
2021/01/15 14:43:05;;;;;;;13.65;8.05;;;;;;;;;;5076635;28;20203;-52
2021/01/15 14:45:57;;;;;;;14.10;8.60;;;;;;;;;;5077161;28;20201;-51
2021/01/15 14:48:51;;;;;;;15.02;9.15;;;;;;;;;;5056863;28;20259;-55
2021/01/15 14:51:38;;;;;;;16.88;9.27;;;;;;;;;;5056974;28;20201;-53
2021/01/15 14:54:42;;;;;;;12.15;7.93;;;;;;;;;;5056715;28;20232;-53
2021/01/15 14:57:22;;;;;;;12.80;6.97;;;;;;;;;;5054564;28;20231;-56
2021/01/15 15:02:42;;;;;;;12.15;8.40;;;;;;;;;;5094903;28;20226;-56
2021/01/15 15:08:24;;;;;;;16.77;9.30;;;;;;;;;;5081615;28;20231;-50
2021/01/15 15:11:05;;;;;;;13.80;8.55;;;;;;;;;;5093603;28;20204;-50
2021/01/15 15:13:37;;;;;;;13.07;7.65;;;;;;;;;;5097084;28;20262;-58
2021/01/15 15:16:08;;;;;;;14.43;8.32;;;;;;;;;;5091272;28;20292;-54
2021/01/15 15:21:46;;;;;;;13.07;8.55;;;;;;;;;;5096039;28;20189;-52
2021/01/15 15:24:17;;;;;;;15.57;9.45;;;;;;;;;;5095794;28;20278;-54
2021/01/15 15:29:55;;;;;;;28.08;11.60;;;;;;;;;;5077604;28;20199;-57
2021/01/15 15:32:33;;;;;;;19.70;12.30;;;;;;;;;;5095782;28;20271;-52
2021/01/15 15:38:17;;;;;;;29.40;12.10;;;;;;;;;;5065183;28;20256;-56
2021/01/15 15:41:09;;;;;;;27.25;13.55;;;;;;;;;;5063481;28;20325;-53
2021/01/15 15:43:40;;;;;;;20.75;12.05;;;;;;;;;;5075662;28;20184;-58
2021/01/15 15:46:18;;;;;;;17.92;10.38;;;;;;;;;;5071128;28;20193;-54
2021/01/15 15:48:52;;;;;;;30.58;12.98;;;;;;;;;;5067008;28;20239;-55
2021/01/15 15:56:31;;;;;;;23.40;13.43;;;;;;;;;;5050320;28;20339;-56
2021/01/15 15:59:02;;;;;;;22.98;14.32;;;;;;;;;;5055108;28;20271;-58
2021/01/15 16:01:30;;;;;;;24.38;12.05;;;;;;;;;;5058682;28;20215;-53
2021/01/15 16:04:04;;;;;;;25.98;15.40;;;;;;;;;;5075783;28;21148;-55
2021/01/15 16:09:33;;;;;;;30.48;15.82;;;;;;;;;;5059097;28;20230;-54
2021/01/15 16:12:07;;;;;;;23.52;14.20;;;;;;;;;;5074686;28;20281;-47
2021/01/15 16:20:48;;;;;;;25.20;13.57;;;;;;;;;;4982739;28;20202;-51
2021/01/15 16:23:44;;;;;;;27.67;15.23;;;;;;;;;;5058072;28;20197;-59
2021/01/15 16:26:15;;;;;;;29.55;15.93;;;;;;;;;;5054328;28;20257;-52
2021/01/15 16:29:01;;;;;;;24.85;13.85;;;;;;;;;;5054521;28;20265;-51
2021/01/15 16:35:05;;;;;;;30.85;16.80;;;;;;;;;;5065492;28;20239;-52
2021/01/15 16:37:47;;;;;;;30.70;16.98;;;;;;;;;;5072289;28;20219;-52
2021/01/15 16:40:22;;;;;;;30.83;17.60;;;;;;;;;;5073958;28;20203;-57
2021/01/15 16:43:03;;;;;;;42.25;22.52;;;;;;;;;;5073313;28;20232;-53
2021/01/15 16:51:02;;;;;;;32.45;19.25;;;;;;;;;;5063984;28;20306;-55
2021/01/15 16:59:36;;;;;;;21.33;12.50;;;;;;;;;;5055359;28;20186;-55
2021/01/15 17:02:26;;;;;;;20.20;12.50;;;;;;;;;;5055219;28;20244;-52
2021/01/15 17:04:59;;;;;;;21.48;13.43;;;;;;;;;;5055462;28;20197;-51
2021/01/15 17:07:37;;;;;;;26.42;13.95;;;;;;;;;;5058188;28;20223;-51
2021/01/15 17:10:17;;;;;;;23.55;13.63;;;;;;;;;;5073720;28;20334;-59
2021/01/15 17:15:51;;;;;;;26.52;13.30;;;;;;;;;;5054298;28;20222;-54
2021/01/15 17:18:35;;;;;;;20.45;11.95;;;;;;;;;;5069428;28;20197;-51
2021/01/15 17:21:29;;;;;;;25.20;13.40;;;;;;;;;;5054408;28;20196;-53
2021/01/15 17:24:12;;;;;;;21.90;12.50;;;;;;;;;;5053383;28;20206;-52
2021/01/15 17:26:41;;;;;;;24.83;14.10;;;;;;;;;;5061251;28;20219;-51
2021/01/15 17:29:12;;;;;;;23.55;12.70;;;;;;;;;;5073465;28;20212;-55
2021/01/15 17:31:56;;;;;;;26.20;14.95;;;;;;;;;;5073556;28;20274;-50
2021/01/15 17:34:28;;;;;;;25.23;14.07;;;;;;;;;;5074928;28;20216;-59
2021/01/15 17:37:02;;;;;;;20.88;12.57;;;;;;;;;;5070263;28;20234;-56
2021/01/15 17:39:30;;;;;;;26.75;15.68;;;;;;;;;;5056518;28;20234;-52
2021/01/15 17:41:57;;;;;;;26.83;16.00;;;;;;;;;;5095671;28;20207;-49
2021/01/15 17:46:50;;;;;;;23.30;12.70;;;;;;;;;;5076345;28;20247;-55
2021/01/15 17:49:18;;;;;;;35.40;17.92;;;;;;;;;;5084688;28;20199;-56
2021/01/15 17:52:04;;;;;;;24.45;13.70;;;;;;;;;;5075600;28;20264;-56
2021/01/15 17:54:34;;;;;;;20.55;12.73;;;;;;;;;;5074584;28;20235;-50
2021/01/15 17:57:12;;;;;;;25.88;13.90;;;;;;;;;;5074907;28;20192;-48
2021/01/15 18:02:41;;;;;;;27.17;12.07;;;;;;;;;;5074026;28;20187;-49
2021/01/15 18:05:09;;;;;;;17.83;11.30;;;;;;;;;;5077181;28;20204;-50
2021/01/15 18:10:31;;;;;;;22.95;11.77;;;;;;;;;;5074850;28;20220;-57
2021/01/15 18:12:58;;;;;;;21.02;14.27;;;;;;;;;;5073836;28;20260;-49
2021/01/15 18:18:11;;;;;;;23.17;13.93;;;;;;;;;;5076755;28;20262;-51
2021/01/15 18:23:13;;;;;;;18.17;11.13;;;;;;;;;;5057199;28;20256;-52
2021/01/15 18:25:47;;;;;;;19.35;13.07;;;;;;;;;;5056801;28;20197;-56
2021/01/15 18:31:05;;;;;;;21.75;13.23;;;;;;;;;;5074595;28;20263;-54
2021/01/15 18:36:25;;;;;;;15.68;11.25;;;;;;;;;;5070172;28;20249;-51
2021/01/15 18:38:52;;;;;;;20.42;11.77;;;;;;;;;;5072699;28;20244;-55
2021/01/15 18:41:23;;;;;;;20.23;11.43;;;;;;;;;;5078710;28;20217;-49
2021/01/15 18:43:53;;;;;;;17.85;11.27;;;;;;;;;;5078534;28;20191;-53
2021/01/15 18:46:43;;;;;;;18.35;10.85;;;;;;;;;;5078830;28;20184;-54
2021/01/15 18:51:35;;;;;;;17.90;11.00;;;;;;;;;;5057573;28;20236;-56
2021/01/15 18:54:02;;;;;;;25.98;13.25;;;;;;;;;;5058577;28;20215;-52
2021/01/15 18:56:45;;;;;;;19.73;10.85;;;;;;;;;;5058773;28;20207;-57
2021/01/15 18:59:25;;;;;;;28.65;11.10;;;;;;;;;;5061905;28;20235;-52
2021/01/15 19:08:17;;;;;;;13.60;8.95;;;;;;;;;;5064586;28;20218;-53
2021/01/15 19:10:47;;;;;;;12.38;8.07;;;;;;;;;;5077899;28;20202;-56
2021/01/15 19:13:15;;;;;;;14.07;8.52;;;;;;;;;;5074745;28;20221;-51
2021/01/15 19:15:53;;;;;;;13.52;9.77;;;;;;;;;;5072233;28;20211;-50